createdAt,value
2023-03-02T00:05:47.651Z,21.9
2023-03-02T00:11:40.217Z,21.8
2023-03-02T00:17:33.178Z,21.8
2023-03-02T00:23:24.809Z,21.8
2023-03-02T00:29:17.935Z,21.8
2023-03-02T00:35:10.770Z,21.8
2023-03-02T00:41:03.343Z,21.7
2023-03-02T00:46:56.161Z,21.7
2023-03-02T00:52:33.634Z,21.6
2023-03-02T00:58:26.921Z,21.6
2023-03-02T01:04:20.652Z,21.6
2023-03-02T01:10:14.379Z,21.6
2023-03-02T01:16:07.109Z,21.6
2023-03-02T01:22:00.563Z,21.6
2023-03-02T01:27:38.406Z,21.6
2023-03-02T01:33:16.366Z,21.5
2023-03-02T01:39:10.329Z,21.5
2023-03-02T01:45:01.673Z,21.5
2023-03-02T01:50:39.873Z,21.5
2023-03-02T01:56:17.812Z,21.5
2023-03-02T02:02:11.583Z,21.4
2023-03-02T02:08:04.922Z,21.4
2023-03-02T02:13:58.142Z,21.4
2023-03-02T02:19:50.822Z,21.4
2023-03-02T02:25:28.524Z,21.4
2023-03-02T02:31:21.820Z,21.4
2023-03-02T02:37:15.626Z,21.4
2023-03-02T02:43:08.709Z,21.3
2023-03-02T02:48:30.360Z,21.3
2023-03-02T02:54:22.484Z,21.3
2023-03-02T03:00:00.471Z,21.3
2023-03-02T03:05:37.731Z,21.3
2023-03-02T03:11:15.217Z,21.3
2023-03-02T03:16:53.069Z,21.3
2023-03-02T03:22:45.884Z,21.3
2023-03-02T03:28:37.958Z,21.3
2023-03-02T03:34:32.312Z,21.2
2023-03-02T03:40:25.426Z,21.2
2023-03-02T03:46:19.904Z,21.2
2023-03-02T03:52:12.345Z,21.2
2023-03-02T03:58:07.013Z,21.2
2023-03-02T04:31:37.724Z,21.1
2023-03-02T04:37:30.134Z,21.1
2023-03-02T04:43:22.945Z,21.1
2023-03-02T04:49:18.805Z,21.1
2023-03-02T04:55:10.924Z,21.1
2023-03-02T05:01:06.324Z,21.1
2023-03-02T05:06:58.891Z,21
2023-03-02T05:12:50.895Z,21.1
2023-03-02T05:18:44.370Z,21
2023-03-02T05:24:36.776Z,21
2023-03-02T05:30:29.570Z,21
2023-03-02T05:36:23.424Z,21
2023-03-02T05:42:16.458Z,21
2023-03-02T05:48:09.719Z,20.9
2023-03-02T05:54:03.156Z,20.9
2023-03-02T05:59:41.446Z,20.9
2023-03-02T06:05:18.326Z,20.9
2023-03-02T06:10:55.321Z,20.9
2023-03-02T06:16:33.367Z,20.9
2023-03-02T06:22:09.760Z,20.9
2023-03-02T06:27:48.414Z,20.9
2023-03-02T06:33:40.018Z,20.9
2023-03-02T06:39:17.657Z,20.9
2023-03-02T06:44:55.894Z,20.9
2023-03-02T06:50:33.509Z,20.9
2023-03-02T06:56:10.643Z,20.9
2023-03-02T07:01:49.810Z,20.8
2023-03-02T07:07:28.290Z,20.8
2023-03-02T07:13:08.702Z,20.8
2023-03-02T07:18:46.343Z,20.8
2023-03-02T07:24:24.046Z,20.7
2023-03-02T07:30:00.313Z,20.8
2023-03-02T07:35:39.018Z,20.7
2023-03-02T07:41:32.120Z,20.7
2023-03-02T07:47:24.962Z,20.7
2023-03-02T07:53:18.341Z,20.7
2023-03-02T07:58:55.077Z,20.7
2023-03-02T08:04:48.143Z,20.7
2023-03-02T08:10:41.436Z,20.7
2023-03-02T08:16:34.128Z,20.6
2023-03-02T08:22:25.922Z,20.6
2023-03-02T08:28:19.081Z,20.6
2023-03-02T08:33:57.181Z,20.6
2023-03-02T08:39:50.583Z,20.6
2023-03-02T08:45:44.567Z,20.6
2023-03-02T08:51:37.820Z,20.5
2023-03-02T08:57:30.791Z,20.5
2023-03-02T09:03:24.337Z,20.5
2023-03-02T09:09:17.944Z,20.5
2023-03-02T09:15:10.604Z,20.4
2023-03-02T09:21:03.308Z,20.4
2023-03-02T09:26:55.985Z,20.4
2023-03-02T09:32:48.931Z,20.4
2023-03-02T09:38:42.655Z,20.4
2023-03-02T09:44:45.413Z,20.4
2023-03-02T09:50:43.698Z,20.4
2023-03-02T09:56:38.340Z,20.4
2023-03-02T10:02:40.381Z,20.3
2023-03-02T10:08:23.816Z,20.3
2023-03-02T10:14:20.398Z,20.3
2023-03-02T10:20:13.326Z,20.3
2023-03-02T10:26:13.422Z,20.3
2023-03-02T10:31:51.539Z,20.3
2023-03-02T10:37:44.893Z,20.3
2023-03-02T10:43:37.153Z,20.3
2023-03-02T10:49:37.636Z,20.3
2023-03-02T10:55:39.684Z,20.3
2023-03-02T11:01:32.350Z,20.3
2023-03-02T11:07:27.655Z,20.3
2023-03-02T11:13:20.723Z,20.3
2023-03-02T11:18:58.756Z,20.2
2023-03-02T11:24:51.673Z,20.2
2023-03-02T11:30:29.690Z,20.2
2023-03-02T11:36:34.567Z,20.2
2023-03-02T11:42:32.662Z,20.2
2023-03-02T11:48:34.042Z,20.2
2023-03-02T11:54:34.573Z,20.1
2023-03-02T12:00:30.183Z,20.1
2023-03-02T12:05:53.868Z,20.1
2023-03-02T12:11:46.467Z,20.1
2023-03-02T12:17:41.672Z,20.1
2023-03-02T12:23:34.379Z,20.1
2023-03-02T12:29:26.969Z,20.1
2023-03-02T12:35:20.733Z,20.1
2023-03-02T12:41:14.088Z,20.1
2023-03-02T12:47:08.785Z,20.1
2023-03-02T12:53:05.618Z,20.1
2023-03-02T12:58:58.494Z,20.1
2023-03-02T13:04:51.825Z,20.1
2023-03-02T13:10:49.240Z,20
2023-03-02T13:16:41.896Z,20
2023-03-02T13:22:34.392Z,20
2023-03-02T13:28:27.542Z,20
2023-03-02T13:34:22.077Z,20
2023-03-02T13:40:14.905Z,20
2023-03-02T13:46:07.433Z,20
2023-03-02T13:52:17.246Z,20
2023-03-02T13:58:09.079Z,19.9
2023-03-02T14:04:03.557Z,19.9
2023-03-02T14:09:57.721Z,19.9
2023-03-02T14:15:35.721Z,19.9
2023-03-02T14:21:28.361Z,19.9
2023-03-02T14:27:22.651Z,19.9
2023-03-02T14:33:21.409Z,19.9
2023-03-02T14:39:13.998Z,19.9
2023-03-02T14:45:17.844Z,19.9
2023-03-02T14:51:10.354Z,19.9
2023-03-02T14:57:05.759Z,19.9
2023-03-02T15:03:13.826Z,19.9
2023-03-02T15:09:24.763Z,19.9
2023-03-02T15:15:01.698Z,19.9
2023-03-02T15:20:54.113Z,19.8
2023-03-02T15:26:50.993Z,19.9
2023-03-02T15:32:44.283Z,19.8
2023-03-02T15:38:37.308Z,19.8
2023-03-02T15:44:31.330Z,19.8
2023-03-02T15:50:24.726Z,19.8
2023-03-02T15:56:18.537Z,19.8
2023-03-02T16:02:07.089Z,19.8
2023-03-02T16:08:00.972Z,19.8
2023-03-02T16:13:54.574Z,19.8
2023-03-02T16:19:46.558Z,19.8
2023-03-02T16:25:40.631Z,19.8
2023-03-02T16:31:34.147Z,19.8
2023-03-02T16:37:27.691Z,19.8
2023-03-02T16:43:20.970Z,19.8
2023-03-02T16:48:59.541Z,19.8
2023-03-02T16:54:52.825Z,19.7
2023-03-02T17:00:46.564Z,19.7
2023-03-02T17:06:41.653Z,19.7
2023-03-02T17:12:38.183Z,19.7
2023-03-02T17:18:31.339Z,19.7
2023-03-02T17:24:23.983Z,19.7
2023-03-02T17:30:32.321Z,19.7
2023-03-02T17:36:24.980Z,19.7
2023-03-02T17:42:17.594Z,19.7
2023-03-02T17:48:14.334Z,19.7
2023-03-02T17:54:07.960Z,19.7
2023-03-02T18:00:08.408Z,19.7
2023-03-02T18:06:01.609Z,19.7
2023-03-02T18:11:58.196Z,19.7
2023-03-02T18:17:50.931Z,19.7
2023-03-02T18:23:28.375Z,19.6
2023-03-02T18:29:22.939Z,19.6
2023-03-02T18:35:16.446Z,19.6
2023-03-02T18:40:53.631Z,19.6
2023-03-02T18:46:46.458Z,19.6
2023-03-02T18:52:39.630Z,19.6
2023-03-02T18:58:32.357Z,19.6
2023-03-02T19:04:26.381Z,19.6
2023-03-02T19:10:20.049Z,19.6
2023-03-02T19:15:58.674Z,19.6
2023-03-02T19:21:53.780Z,19.6
2023-03-02T19:27:46.871Z,19.6
2023-03-02T19:33:40.596Z,19.6
2023-03-02T19:39:17.888Z,19.6
2023-03-02T19:45:10.956Z,19.5
2023-03-02T19:51:05.679Z,19.6
2023-03-02T19:56:59.301Z,19.5
2023-03-02T20:02:54.683Z,19.5
2023-03-02T20:08:32.135Z,19.6
2023-03-02T20:14:34.167Z,19.5
2023-03-02T20:20:29.679Z,19.5
2023-03-02T20:26:22.285Z,19.5
2023-03-02T20:32:16.016Z,19.5
2023-03-02T20:38:10.150Z,19.5
2023-03-02T20:44:06.141Z,19.5
2023-03-02T20:49:59.899Z,19.4
2023-03-02T20:55:53.118Z,19.5
2023-03-02T21:01:30.873Z,19.5
2023-03-02T21:07:24.223Z,19.4
2023-03-02T21:13:20.136Z,19.4
2023-03-02T21:19:16.286Z,19.4
2023-03-02T21:25:05.566Z,19.4
2023-03-02T21:31:02.059Z,19.4
2023-03-02T21:36:56.690Z,19.4
2023-03-02T21:42:50.909Z,19.4
2023-03-02T21:48:44.224Z,19.4
2023-03-02T21:54:23.979Z,19.4
2023-03-02T22:00:18.027Z,19.4
2023-03-02T22:06:10.676Z,19.4
2023-03-02T22:12:03.631Z,19.4
2023-03-02T22:17:58.000Z,19.4
2023-03-02T22:23:51.642Z,19.4
2023-03-02T22:29:44.188Z,19.4
2023-03-02T22:35:37.029Z,19.4
2023-03-02T22:41:30.592Z,19.4
2023-03-02T22:47:24.153Z,19.4
2023-03-02T22:53:17.861Z,19.4
2023-03-02T22:59:11.731Z,19.4
2023-03-02T23:05:05.469Z,19.4
2023-03-02T23:10:58.904Z,19.4
2023-03-02T23:16:53.287Z,19.4
2023-03-02T23:22:45.685Z,19.4
2023-03-02T23:28:38.221Z,19.4
2023-03-02T23:34:31.244Z,19.4
2023-03-02T23:40:23.482Z,19.4
2023-03-02T23:46:16.566Z,19.3
2023-03-02T23:52:08.965Z,19.3
2023-03-02T23:58:02.851Z,19.3
